Vanquish — PHCU — position and weather

sailwx.info

Track history (hours):
 
Tides and Currents Weather Stations Pressure Air Temp Water Temp Dewpoint Dewpoint Depression Visibility Wind Speed Wind Dir Waves Ship Positions

Vanquish

Last reported at 2017-Feb-26 12:26 UTC. Time now 2017-Feb-26 13:08 UTC.
Position N 51°41' E 004°36'.

MMSI: 246138952.

Date/timePositionNaut miles runAvg speedWind from/ knotsBaromVisibWave heightAir tempDewpointWater temp
2017-Feb-26 12:26N 51°41' E 004°36'0 0.0
2017-Feb-26 11:33N 51°41' E 004°36'0 0.0
2017-Feb-26 10:27N 51°41' E 004°36'0 0.0
2017-Feb-26 09:32N 51°41' E 004°36'0 0.0
2017-Feb-26 08:33N 51°41' E 004°36'0 0.0
2017-Feb-26 07:33N 51°41' E 004°36'0 0.0
2017-Feb-26 06:32N 51°41' E 004°36'0 0.0
2017-Feb-26 05:31N 51°41' E 004°36'0 0.0
2017-Feb-26 04:33N 51°41' E 004°36'0 0.0
2017-Feb-26 03:33N 51°41' E 004°36'0 0.0
2017-Feb-26 02:33N 51°41' E 004°36'0 0.0
2017-Feb-26 01:33N 51°41' E 004°36'0 0.0
2017-Feb-26 00:27N 51°41' E 004°36'0 0.0
2017-Feb-25 23:31N 51°41' E 004°36'0 0.0
2017-Feb-25 22:33N 51°41' E 004°36'0 0.0
2017-Feb-25 21:25N 51°41' E 004°36'0 0.0
2017-Feb-25 20:30N 51°41' E 004°36'0 0.0
2017-Feb-25 19:33N 51°41' E 004°36'0 0.0
2017-Feb-25 18:33N 51°41' E 004°36'0 0.0
2017-Feb-25 17:33N 51°41' E 004°36'0 0.0
2017-Feb-25 16:33N 51°41' E 004°36'0 0.0
2017-Feb-25 15:22N 51°41' E 004°36'0 0.0
2017-Feb-25 14:31N 51°41' E 004°36'0 0.0
2017-Feb-25 13:33N 51°41' E 004°36'0 0.0
2017-Feb-25 12:25N 51°41' E 004°36'0 0.0
2017-Feb-25 11:33N 51°41' E 004°36'0 0.0
2017-Feb-25 10:33N 51°41' E 004°36'0 0.0
2017-Feb-25 09:33N 51°41' E 004°36'0 0.0
2017-Feb-25 08:19N 51°41' E 004°36'0 0.0
2017-Feb-25 07:31N 51°41' E 004°36'0 0.0
2017-Feb-25 06:33N 51°41' E 004°36'0 0.0
2017-Feb-25 05:32N 51°41' E 004°36'0 0.0
2017-Feb-25 04:32N 51°41' E 004°36'0 0.0
2017-Feb-25 03:33N 51°41' E 004°36'0 0.0
2017-Feb-25 02:33N 51°41' E 004°36'0 0.0
2017-Feb-25 01:33N 51°41' E 004°36'0 0.0
2017-Feb-25 00:33N 51°41' E 004°36'0 0.1
2017-Feb-24 23:33N 51°41' E 004°36'0 0.0
2017-Feb-24 22:33N 51°41' E 004°36'0 0.0
2017-Feb-24 21:32N 51°41' E 004°36'0 0.1
2017-Feb-24 20:33N 51°41' E 004°36'0 0.0
2017-Feb-24 19:33N 51°41' E 004°36'0 0.0
2017-Feb-24 18:33N 51°41' E 004°36'3 3.4
2017-Feb-24 17:33N 51°44' E 004°38'7 6.7
2017-Feb-24 16:33N 51°50' E 004°32'8 8.4
2017-Feb-24 15:34N 51°53' E 004°20'1111.3
2017-Feb-24 14:34N 51°59' E 004°05'9114.1
2017-Feb-24 08:05N 52°45' E 001°56'815.5
2017-Feb-24 07:33N 52°50' E 001°45'1615.8
2017-Feb-24 06:33N 52°58' E 001°22'5914.7
2017-Feb-24 02:34N 53°34' E 000°05'1010.2
2017-Feb-24 01:34N 53°38' W 000°11'1 0.5
2017-Feb-24 00:33N 53°38' W 000°12'0 0.0
2017-Feb-23 23:32N 53°38' W 000°12'0 0.0
2017-Feb-23 22:31N 53°38' W 000°12'0 0.0
2017-Feb-23 21:33N 53°38' W 000°12'0 0.0
2017-Feb-23 20:33N 53°38' W 000°12'0 0.0
2017-Feb-23 19:33N 53°38' W 000°12'0 0.0
2017-Feb-23 18:33N 53°38' W 000°12'0 0.0
2017-Feb-23 17:33N 53°38' W 000°12'0 0.0
2017-Feb-23 16:33N 53°38' W 000°12'0 0.0
2017-Feb-23 15:33N 53°38' W 000°12'0 0.0
2017-Feb-23 14:33N 53°38' W 000°12'0 0.0
2017-Feb-23 13:34N 53°38' W 000°12'0 0.0
2017-Feb-23 12:33N 53°38' W 000°12'0 0.2
2017-Feb-23 11:33N 53°38' W 000°11'0 0.5
2017-Feb-23 10:33N 53°38' W 000°11'3 3.5
2017-Feb-23 09:33N 53°37' W 000°05'1110.3
2017-Feb-23 08:30N 53°33' E 000°12'4611.0
2017-Feb-23 04:18N 53°02' E 001°09'912.4
2017-Feb-23 03:33N 52°58' E 001°23'1413.5
2017-Feb-23 02:33N 52°52' E 001°43'8413.8
2017-Feb-22 20:26N 52°06' E 003°40'1113.0
2017-Feb-22 19:33N 52°02' E 003°57'1413.7
2017-Feb-22 18:33N 51°55' E 004°15'9 9.1
2017-Feb-22 17:33N 51°50' E 004°28'7 7.1
2017-Feb-22 16:33N 51°46' E 004°38'5 5.1
2017-Feb-22 15:33N 51°41' E 004°36'0 0.0
2017-Feb-22 14:29N 51°41' E 004°36'0 0.0
2017-Feb-22 13:31N 51°41' E 004°36'0 0.0
2017-Feb-22 12:32N 51°41' E 004°36'0 0.0
2017-Feb-22 11:33N 51°41' E 004°36'0 0.0
2017-Feb-22 10:33N 51°41' E 004°36'0 0.0
2017-Feb-22 09:33N 51°41' E 004°36'0 0.0
2017-Feb-22 08:31N 51°41' E 004°36'6 6.0
2017-Feb-22 07:33N 51°46' E 004°38'8 7.5
2017-Feb-22 06:33N 51°50' E 004°27'9 9.4
2017-Feb-22 05:33N 51°55' E 004°14'1211.8
2017-Feb-22 04:33N 52°00' E 003°57'9313.3
2017-Feb-21 21:33N 52°49' E 001°47'1312.9
2017-Feb-21 20:33N 52°56' E 001°29'1413.4
2017-Feb-21 19:33N 53°02' E 001°09'4513.8
2017-Feb-21 16:18N 53°32' E 000°14'1013.9
2017-Feb-21 15:33N 53°36' W 000°02'6 5.9
2017-Feb-21 14:32N 53°38' W 000°12'0 0.0
2017-Feb-21 13:33N 53°38' W 000°12'0 0.0
2017-Feb-21 12:33N 53°38' W 000°12'0 0.0
2017-Feb-21 11:33N 53°38' W 000°12'0 0.0
2017-Feb-21 10:33N 53°38' W 000°12'0 0.0
2017-Feb-21 09:33N 53°38' W 000°12'0 0.0
2017-Feb-21 08:33N 53°38' W 000°12'0 0.1
2017-Feb-21 07:33N 53°38' W 000°11'1 1.1
2017-Feb-21 06:33N 53°38' W 000°10'1210.8
2017-Feb-21 05:29N 53°33' E 000°08'4312.8
2017-Feb-21 02:06N 53°05' E 001°02'712.3
2017-Feb-21 01:33N 53°01' E 001°12'1212.4
2017-Feb-21 00:33N 52°55' E 001°30'9713.7
2017-Feb-20 17:29N 52°05' E 003°46'1313.7
2017-Feb-20 16:33N 51°59' E 004°04'1211.8
2017-Feb-20 15:33N 51°52' E 004°20'9 8.7
2017-Feb-20 14:33N 51°50' E 004°33'8 7.9
2017-Feb-20 13:32N 51°42' E 004°36'1 1.0
2017-Feb-20 12:33N 51°41' E 004°36'0 0.0
2017-Feb-20 11:29N 51°41' E 004°36'0 0.0
2017-Feb-20 10:33N 51°41' E 004°36'0 0.0
2017-Feb-20 09:33N 51°41' E 004°36'0 0.0
2017-Feb-20 08:31N 51°41' E 004°36'0 0.2
2017-Feb-20 07:30N 51°41' E 004°36'0 0.0
2017-Feb-20 06:33N 51°41' E 004°36'0 0.0
2017-Feb-20 05:33N 51°41' E 004°36'0 0.0
2017-Feb-20 04:33N 51°41' E 004°36'0 0.0
2017-Feb-20 03:33N 51°41' E 004°36'0 0.0
2017-Feb-20 02:33N 51°41' E 004°36'0 0.0
2017-Feb-20 01:32N 51°41' E 004°36'0 0.0
2017-Feb-20 00:32N 51°41' E 004°36'0 0.0
2017-Feb-19 23:33N 51°41' E 004°36'0 0.0
2017-Feb-19 22:33N 51°41' E 004°36'0 0.0
2017-Feb-19 21:33N 51°41' E 004°36'0 0.0
2017-Feb-19 20:30N 51°41' E 004°36'0 0.0
2017-Feb-19 19:33N 51°41' E 004°36'0 0.0
2017-Feb-19 18:33N 51°41' E 004°36'0 0.0
2017-Feb-19 17:33N 51°41' E 004°36'0 0.0
2017-Feb-19 16:33N 51°41' E 004°36'0 0.0
2017-Feb-19 15:33N 51°41' E 004°36'0 0.0
2017-Feb-19 14:33N 51°41' E 004°36'0 0.0
2017-Feb-19 13:33N 51°41' E 004°36'0 0.0
2017-Feb-19 12:33N 51°41' E 004°36'0 0.0
2017-Feb-19 11:33N 51°41' E 004°36'0 0.0
2017-Feb-19 10:32N 51°41' E 004°36'0 0.0
2017-Feb-19 09:33N 51°41' E 004°36'0 0.0
2017-Feb-19 08:33N 51°41' E 004°36'0 0.0
2017-Feb-19 07:33N 51°41' E 004°36'0 0.0
2017-Feb-19 06:33N 51°41' E 004°36'0 0.0
2017-Feb-19 05:32N 51°41' E 004°36'0 0.0
2017-Feb-19 04:31N 51°41' E 004°36'0 0.0
2017-Feb-19 03:33N 51°41' E 004°36'0 0.0
2017-Feb-19 02:33N 51°41' E 004°36'0 0.0
2017-Feb-19 01:33N 51°41' E 004°36'0 0.0
2017-Feb-19 00:33N 51°41' E 004°36'0 0.0
2017-Feb-18 23:33N 51°41' E 004°36'0 0.0
2017-Feb-18 22:29N 51°41' E 004°36'0 0.0
2017-Feb-18 21:33N 51°41' E 004°36'0 0.0
2017-Feb-18 20:33N 51°41' E 004°36'0 0.0
2017-Feb-18 19:31N 51°41' E 004°36'0 0.0
2017-Feb-18 18:33N 51°41' E 004°36'0 0.0
2017-Feb-18 17:30N 51°41' E 004°36'0 0.0
2017-Feb-18 16:33N 51°41' E 004°36'0 0.0
2017-Feb-18 15:33N 51°41' E 004°36'0 0.0
2017-Feb-18 14:33N 51°41' E 004°36'0 0.0
2017-Feb-18 13:33N 51°41' E 004°36'0 0.0
2017-Feb-18 12:33N 51°41' E 004°36'0 0.0
2017-Feb-18 11:33N 51°41' E 004°36'0 0.0
2017-Feb-18 10:33N 51°41' E 004°36'0 0.0
2017-Feb-18 09:33N 51°41' E 004°36'0 0.0
2017-Feb-18 08:33N 51°41' E 004°36'0 0.0
2017-Feb-18 07:33N 51°41' E 004°36'0 0.0
2017-Feb-18 06:33N 51°41' E 004°36'0 0.0
2017-Feb-18 05:33N 51°41' E 004°36'0 0.0
2017-Feb-18 04:33N 51°41' E 004°36'0 0.0
2017-Feb-18 03:33N 51°41' E 004°36'0 0.0
2017-Feb-18 02:33N 51°41' E 004°36'0 0.0
2017-Feb-18 01:33N 51°41' E 004°36'0 0.0
2017-Feb-18 00:33N 51°41' E 004°36'0 0.0
2017-Feb-17 23:33N 51°41' E 004°36'0 0.1
2017-Feb-17 22:33N 51°41' E 004°36'0 0.0
2017-Feb-17 21:33N 51°41' E 004°36'1 0.8
2017-Feb-17 20:33N 51°42' E 004°35'7 6.8
2017-Feb-17 19:33N 51°48' E 004°35'10 9.8
2017-Feb-17 18:33N 51°52' E 004°20'1211.8
2017-Feb-17 17:34N 51°59' E 004°05'1514.0
2017-Feb-17 16:31N 52°04' E 003°42'7615.2
2017-Feb-17 11:29N 52°45' E 001°57'1616.8
2017-Feb-17 10:34N 52°53' E 001°35'1716.6
2017-Feb-17 09:33N 53°01' E 001°10'6415.1
2017-Feb-17 05:19N 53°55' E 000°13'1114.4
2017-Feb-17 04:33N 54°05' E 000°05'1413.6
2017-Feb-17 03:34N 54°16' W 000°09'1313.4
2017-Feb-17 02:33N 54°26' W 000°24'5 0.4
2017-Feb-16 13:33N 54°31' W 000°29'1514.7
2017-Feb-16 12:33N 54°20' W 000°13'  
Track history (hours):
 
Tides and Currents Weather Stations Pressure Air Temp Water Temp Dewpoint Dewpoint Depression Visibility Wind Speed Wind Dir Waves Ship Positions

Vanquish

Last reported at 2017-Feb-26 12:26 UTC. Time now 2017-Feb-26 13:08 UTC.
Position N 51°41' E 004°36'.

MMSI: 246138952.

Date/timePositionNaut miles runAvg speedWind from/ knotsBaromVisibWave heightAir tempDewpointWater temp
2017-Feb-26 12:26N 51°41' E 004°36'0 0.0
2017-Feb-26 11:33N 51°41' E 004°36'0 0.0
2017-Feb-26 10:27N 51°41' E 004°36'0 0.0
2017-Feb-26 09:32N 51°41' E 004°36'0 0.0
2017-Feb-26 08:33N 51°41' E 004°36'0 0.0
2017-Feb-26 07:33N 51°41' E 004°36'0 0.0
2017-Feb-26 06:32N 51°41' E 004°36'0 0.0
2017-Feb-26 05:31N 51°41' E 004°36'0 0.0
2017-Feb-26 04:33N 51°41' E 004°36'0 0.0
2017-Feb-26 03:33N 51°41' E 004°36'0 0.0
2017-Feb-26 02:33N 51°41' E 004°36'0 0.0
2017-Feb-26 01:33N 51°41' E 004°36'0 0.0
2017-Feb-26 00:27N 51°41' E 004°36'0 0.0
2017-Feb-25 23:31N 51°41' E 004°36'0 0.0
2017-Feb-25 22:33N 51°41' E 004°36'0 0.0
2017-Feb-25 21:25N 51°41' E 004°36'0 0.0
2017-Feb-25 20:30N 51°41' E 004°36'0 0.0
2017-Feb-25 19:33N 51°41' E 004°36'0 0.0
2017-Feb-25 18:33N 51°41' E 004°36'0 0.0
2017-Feb-25 17:33N 51°41' E 004°36'0 0.0
2017-Feb-25 16:33N 51°41' E 004°36'0 0.0
2017-Feb-25 15:22N 51°41' E 004°36'0 0.0
2017-Feb-25 14:31N 51°41' E 004°36'0 0.0
2017-Feb-25 13:33N 51°41' E 004°36'0 0.0
2017-Feb-25 12:25N 51°41' E 004°36'0 0.0
2017-Feb-25 11:33N 51°41' E 004°36'0 0.0
2017-Feb-25 10:33N 51°41' E 004°36'0 0.0
2017-Feb-25 09:33N 51°41' E 004°36'0 0.0
2017-Feb-25 08:19N 51°41' E 004°36'0 0.0
2017-Feb-25 07:31N 51°41' E 004°36'0 0.0
2017-Feb-25 06:33N 51°41' E 004°36'0 0.0
2017-Feb-25 05:32N 51°41' E 004°36'0 0.0
2017-Feb-25 04:32N 51°41' E 004°36'0 0.0
2017-Feb-25 03:33N 51°41' E 004°36'0 0.0
2017-Feb-25 02:33N 51°41' E 004°36'0 0.0
2017-Feb-25 01:33N 51°41' E 004°36'0 0.0
2017-Feb-25 00:33N 51°41' E 004°36'0 0.1
2017-Feb-24 23:33N 51°41' E 004°36'0 0.0
2017-Feb-24 22:33N 51°41' E 004°36'0 0.0
2017-Feb-24 21:32N 51°41' E 004°36'0 0.1
2017-Feb-24 20:33N 51°41' E 004°36'0 0.0
2017-Feb-24 19:33N 51°41' E 004°36'0 0.0
2017-Feb-24 18:33N 51°41' E 004°36'3 3.4
2017-Feb-24 17:33N 51°44' E 004°38'7 6.7
2017-Feb-24 16:33N 51°50' E 004°32'8 8.4
2017-Feb-24 15:34N 51°53' E 004°20'1111.3
2017-Feb-24 14:34N 51°59' E 004°05'9114.1
2017-Feb-24 08:05N 52°45' E 001°56'815.5
2017-Feb-24 07:33N 52°50' E 001°45'1615.8
2017-Feb-24 06:33N 52°58' E 001°22'5914.7
2017-Feb-24 02:34N 53°34' E 000°05'1010.2
2017-Feb-24 01:34N 53°38' W 000°11'1 0.5
2017-Feb-24 00:33N 53°38' W 000°12'0 0.0
2017-Feb-23 23:32N 53°38' W 000°12'0 0.0
2017-Feb-23 22:31N 53°38' W 000°12'0 0.0
2017-Feb-23 21:33N 53°38' W 000°12'0 0.0
2017-Feb-23 20:33N 53°38' W 000°12'0 0.0
2017-Feb-23 19:33N 53°38' W 000°12'0 0.0
2017-Feb-23 18:33N 53°38' W 000°12'0 0.0
2017-Feb-23 17:33N 53°38' W 000°12'0 0.0
2017-Feb-23 16:33N 53°38' W 000°12'0 0.0
2017-Feb-23 15:33N 53°38' W 000°12'0 0.0
2017-Feb-23 14:33N 53°38' W 000°12'0 0.0
2017-Feb-23 13:34N 53°38' W 000°12'0 0.0
2017-Feb-23 12:33N 53°38' W 000°12'0 0.2
2017-Feb-23 11:33N 53°38' W 000°11'0 0.5
2017-Feb-23 10:33N 53°38' W 000°11'3 3.5
2017-Feb-23 09:33N 53°37' W 000°05'1110.3
2017-Feb-23 08:30N 53°33' E 000°12'4611.0
2017-Feb-23 04:18N 53°02' E 001°09'912.4
2017-Feb-23 03:33N 52°58' E 001°23'1413.5
2017-Feb-23 02:33N 52°52' E 001°43'8413.8
2017-Feb-22 20:26N 52°06' E 003°40'1113.0
2017-Feb-22 19:33N 52°02' E 003°57'1413.7
2017-Feb-22 18:33N 51°55' E 004°15'9 9.1
2017-Feb-22 17:33N 51°50' E 004°28'7 7.1
2017-Feb-22 16:33N 51°46' E 004°38'5 5.1
2017-Feb-22 15:33N 51°41' E 004°36'0 0.0
2017-Feb-22 14:29N 51°41' E 004°36'0 0.0
2017-Feb-22 13:31N 51°41' E 004°36'0 0.0
2017-Feb-22 12:32N 51°41' E 004°36'0 0.0
2017-Feb-22 11:33N 51°41' E 004°36'0 0.0
2017-Feb-22 10:33N 51°41' E 004°36'0 0.0
2017-Feb-22 09:33N 51°41' E 004°36'0 0.0
2017-Feb-22 08:31N 51°41' E 004°36'6 6.0
2017-Feb-22 07:33N 51°46' E 004°38'8 7.5
2017-Feb-22 06:33N 51°50' E 004°27'9 9.4
2017-Feb-22 05:33N 51°55' E 004°14'1211.8
2017-Feb-22 04:33N 52°00' E 003°57'9313.3
2017-Feb-21 21:33N 52°49' E 001°47'1312.9
2017-Feb-21 20:33N 52°56' E 001°29'1413.4
2017-Feb-21 19:33N 53°02' E 001°09'4513.8
2017-Feb-21 16:18N 53°32' E 000°14'1013.9
2017-Feb-21 15:33N 53°36' W 000°02'6 5.9
2017-Feb-21 14:32N 53°38' W 000°12'0 0.0
2017-Feb-21 13:33N 53°38' W 000°12'0 0.0
2017-Feb-21 12:33N 53°38' W 000°12'0 0.0
2017-Feb-21 11:33N 53°38' W 000°12'0 0.0
2017-Feb-21 10:33N 53°38' W 000°12'0 0.0
2017-Feb-21 09:33N 53°38' W 000°12'0 0.0
2017-Feb-21 08:33N 53°38' W 000°12'0 0.1
2017-Feb-21 07:33N 53°38' W 000°11'1 1.1
2017-Feb-21 06:33N 53°38' W 000°10'1210.8
2017-Feb-21 05:29N 53°33' E 000°08'4312.8
2017-Feb-21 02:06N 53°05' E 001°02'712.3
2017-Feb-21 01:33N 53°01' E 001°12'1212.4
2017-Feb-21 00:33N 52°55' E 001°30'9713.7
2017-Feb-20 17:29N 52°05' E 003°46'1313.7
2017-Feb-20 16:33N 51°59' E 004°04'1211.8
2017-Feb-20 15:33N 51°52' E 004°20'9 8.7
2017-Feb-20 14:33N 51°50' E 004°33'8 7.9
2017-Feb-20 13:32N 51°42' E 004°36'1 1.0
2017-Feb-20 12:33N 51°41' E 004°36'0 0.0
2017-Feb-20 11:29N 51°41' E 004°36'0 0.0
2017-Feb-20 10:33N 51°41' E 004°36'0 0.0
2017-Feb-20 09:33N 51°41' E 004°36'0 0.0
2017-Feb-20 08:31N 51°41' E 004°36'0 0.2
2017-Feb-20 07:30N 51°41' E 004°36'0 0.0
2017-Feb-20 06:33N 51°41' E 004°36'0 0.0
2017-Feb-20 05:33N 51°41' E 004°36'0 0.0
2017-Feb-20 04:33N 51°41' E 004°36'0 0.0
2017-Feb-20 03:33N 51°41' E 004°36'0 0.0
2017-Feb-20 02:33N 51°41' E 004°36'0 0.0
2017-Feb-20 01:32N 51°41' E 004°36'0 0.0
2017-Feb-20 00:32N 51°41' E 004°36'0 0.0
2017-Feb-19 23:33N 51°41' E 004°36'0 0.0
2017-Feb-19 22:33N 51°41' E 004°36'0 0.0
2017-Feb-19 21:33N 51°41' E 004°36'0 0.0
2017-Feb-19 20:30N 51°41' E 004°36'0 0.0
2017-Feb-19 19:33N 51°41' E 004°36'0 0.0
2017-Feb-19 18:33N 51°41' E 004°36'0 0.0
2017-Feb-19 17:33N 51°41' E 004°36'0 0.0
2017-Feb-19 16:33N 51°41' E 004°36'0 0.0
2017-Feb-19 15:33N 51°41' E 004°36'0 0.0
2017-Feb-19 14:33N 51°41' E 004°36'0 0.0
2017-Feb-19 13:33N 51°41' E 004°36'0 0.0
2017-Feb-19 12:33N 51°41' E 004°36'0 0.0
2017-Feb-19 11:33N 51°41' E 004°36'0 0.0
2017-Feb-19 10:32N 51°41' E 004°36'0 0.0
2017-Feb-19 09:33N 51°41' E 004°36'0 0.0
2017-Feb-19 08:33N 51°41' E 004°36'0 0.0
2017-Feb-19 07:33N 51°41' E 004°36'0 0.0
2017-Feb-19 06:33N 51°41' E 004°36'0 0.0
2017-Feb-19 05:32N 51°41' E 004°36'0 0.0
2017-Feb-19 04:31N 51°41' E 004°36'0 0.0
2017-Feb-19 03:33N 51°41' E 004°36'0 0.0
2017-Feb-19 02:33N 51°41' E 004°36'0 0.0
2017-Feb-19 01:33N 51°41' E 004°36'0 0.0
2017-Feb-19 00:33N 51°41' E 004°36'0 0.0
2017-Feb-18 23:33N 51°41' E 004°36'0 0.0
2017-Feb-18 22:29N 51°41' E 004°36'0 0.0
2017-Feb-18 21:33N 51°41' E 004°36'0 0.0
2017-Feb-18 20:33N 51°41' E 004°36'0 0.0
2017-Feb-18 19:31N 51°41' E 004°36'0 0.0
2017-Feb-18 18:33N 51°41' E 004°36'0 0.0
2017-Feb-18 17:30N 51°41' E 004°36'0 0.0
2017-Feb-18 16:33N 51°41' E 004°36'0 0.0
2017-Feb-18 15:33N 51°41' E 004°36'0 0.0
2017-Feb-18 14:33N 51°41' E 004°36'0 0.0
2017-Feb-18 13:33N 51°41' E 004°36'0 0.0
2017-Feb-18 12:33N 51°41' E 004°36'0 0.0
2017-Feb-18 11:33N 51°41' E 004°36'0 0.0
2017-Feb-18 10:33N 51°41' E 004°36'0 0.0
2017-Feb-18 09:33N 51°41' E 004°36'0 0.0
2017-Feb-18 08:33N 51°41' E 004°36'0 0.0
2017-Feb-18 07:33N 51°41' E 004°36'0 0.0
2017-Feb-18 06:33N 51°41' E 004°36'0 0.0
2017-Feb-18 05:33N 51°41' E 004°36'0 0.0
2017-Feb-18 04:33N 51°41' E 004°36'0 0.0
2017-Feb-18 03:33N 51°41' E 004°36'0 0.0
2017-Feb-18 02:33N 51°41' E 004°36'0 0.0
2017-Feb-18 01:33N 51°41' E 004°36'0 0.0
2017-Feb-18 00:33N 51°41' E 004°36'0 0.0
2017-Feb-17 23:33N 51°41' E 004°36'0 0.1
2017-Feb-17 22:33N 51°41' E 004°36'0 0.0
2017-Feb-17 21:33N 51°41' E 004°36'1 0.8
2017-Feb-17 20:33N 51°42' E 004°35'7 6.8
2017-Feb-17 19:33N 51°48' E 004°35'10 9.8
2017-Feb-17 18:33N 51°52' E 004°20'1211.8
2017-Feb-17 17:34N 51°59' E 004°05'1514.0
2017-Feb-17 16:31N 52°04' E 003°42'7615.2
2017-Feb-17 11:29N 52°45' E 001°57'1616.8
2017-Feb-17 10:34N 52°53' E 001°35'1716.6
2017-Feb-17 09:33N 53°01' E 001°10'6415.1
2017-Feb-17 05:19N 53°55' E 000°13'1114.4
2017-Feb-17 04:33N 54°05' E 000°05'1413.6
2017-Feb-17 03:34N 54°16' W 000°09'1313.4
2017-Feb-17 02:33N 54°26' W 000°24'5 0.4
2017-Feb-16 13:33N 54°31' W 000°29'1514.7
2017-Feb-16 12:33N 54°20' W 000°13'  

Dump ship's entire track history